Time,TemperatureF,DewpointF,PressureIn,WindDirection,WindDirectionDegrees,WindSpeedMPH,WindSpeedGustMPH,Humidity,HourlyPrecipIn,Conditions,Clouds,dailyrainin,SoftwareType,DateUTC
2013-01-16 00:02:00,31.0,3.0,30.13,WNW,293,0.0,1.0,30,0.00,,,0.00,,2013-01-16 07:02:00,
2013-01-16 00:11:00,31.0,3.0,30.13,WNW,293,0.0,1.0,30,0.00,,,0.00,,2013-01-16 07:11:00,
2013-01-16 00:22:00,31.0,3.0,30.13,NNE,23,0.0,2.0,30,0.00,,,0.00,,2013-01-16 07:22:00,
2013-01-16 00:32:00,31.0,3.0,30.10,NNE,23,2.0,2.0,30,0.00,,,0.00,,2013-01-16 07:32:00,
2013-01-16 00:42:00,31.0,3.0,30.10,NNE,23,2.0,2.0,30,0.00,,,0.00,,2013-01-16 07:42:00,
2013-01-16 00:52:00,30.0,2.0,30.13,WNW,293,4.0,6.0,30,0.00,,,0.00,,2013-01-16 07:52:00,
2013-01-16 01:02:00,29.0,2.0,30.13,West,270,5.0,6.0,31,0.00,,,0.00,,2013-01-16 08:02:00,
2013-01-16 01:11:00,29.0,2.0,30.13,West,270,5.0,6.0,31,0.00,,,0.00,,2013-01-16 08:11:00,
2013-01-16 01:22:00,29.0,1.0,30.13,NNE,23,3.0,4.0,30,0.00,,,0.00,,2013-01-16 08:22:00,
2013-01-16 01:32:00,29.0,2.0,30.13,NNW,338,1.0,2.0,31,0.00,,,0.00,,2013-01-16 08:32:00,
2013-01-16 01:42:00,29.0,2.0,30.13,NNW,338,1.0,2.0,31,0.00,,,0.00,,2013-01-16 08:42:00,
2013-01-16 01:52:00,29.0,2.0,30.13,West,270,2.0,3.0,31,0.00,,,0.00,,2013-01-16 08:52:00,
2013-01-16 02:02:00,29.0,2.0,30.16,SSE,158,2.0,3.0,31,0.00,,,0.00,,2013-01-16 09:02:00,
2013-01-16 02:11:00,29.0,2.0,30.16,SSE,158,2.0,3.0,31,0.00,,,0.00,,2013-01-16 09:11:00,
2013-01-16 02:22:00,28.0,1.0,30.16,NNW,338,1.0,2.0,31,0.00,,,0.00,,2013-01-16 09:22:00,
2013-01-16 02:32:00,28.0,1.0,30.16,WNW,293,3.0,3.0,31,0.00,,,0.00,,2013-01-16 09:32:00,
2013-01-16 02:42:00,28.0,1.0,30.16,WNW,293,3.0,3.0,31,0.00,,,0.00,,2013-01-16 09:42:00,
2013-01-16 02:52:00,28.0,1.0,30.16,WNW,293,2.0,3.0,31,0.00,,,0.00,,2013-01-16 09:52:00,
2013-01-16 03:02:00,27.0,1.0,30.16,NNW,338,2.0,3.0,32,0.00,,,0.00,,2013-01-16 10:02:00,
2013-01-16 03:11:00,27.0,1.0,30.16,NNW,338,2.0,3.0,32,0.00,,,0.00,,2013-01-16 10:11:00,
2013-01-16 03:22:00,28.0,2.0,30.16,WNW,293,2.0,3.0,32,0.00,,,0.00,,2013-01-16 10:22:00,
2013-01-16 03:32:00,28.0,2.0,30.16,NW,315,3.0,5.0,32,0.00,,,0.00,,2013-01-16 10:32:00,
2013-01-16 03:42:00,28.0,2.0,30.16,NW,315,3.0,5.0,32,0.00,,,0.00,,2013-01-16 10:42:00,
2013-01-16 03:52:00,27.0,1.0,30.16,WSW,248,2.0,4.0,32,0.00,,,0.00,,2013-01-16 10:52:00,
2013-01-16 04:02:00,28.0,2.0,30.16,North,0,2.0,2.0,32,0.00,,,0.00,,2013-01-16 11:02:00,
2013-01-16 04:11:00,28.0,2.0,30.16,North,0,2.0,2.0,32,0.00,,,0.00,,2013-01-16 11:11:00,
2013-01-16 04:22:00,28.0,2.0,30.13,North,0,3.0,3.0,32,0.00,,,0.00,,2013-01-16 11:22:00,
2013-01-16 04:32:00,28.0,3.0,30.16,NNE,23,2.0,4.0,33,0.00,,,0.00,,2013-01-16 11:32:00,
2013-01-16 04:42:00,28.0,3.0,30.16,NNE,23,2.0,4.0,33,0.00,,,0.00,,2013-01-16 11:42:00,
2013-01-16 04:52:00,28.0,3.0,30.13,NNW,338,3.0,3.0,33,0.00,,,0.00,,2013-01-16 11:52:00,
2013-01-16 05:02:00,28.0,3.0,30.13,North,0,3.0,4.0,33,0.00,,,0.00,,2013-01-16 12:02:00,
2013-01-16 05:12:00,28.0,3.0,30.13,North,0,3.0,4.0,33,0.00,,,0.00,,2013-01-16 12:12:00,
2013-01-16 05:22:00,28.0,3.0,30.13,NE,45,1.0,4.0,33,0.00,,,0.00,,2013-01-16 12:22:00,
2013-01-16 05:32:00,29.0,3.0,30.13,NNW,338,2.0,5.0,32,0.00,,,0.00,,2013-01-16 12:32:00,
2013-01-16 05:42:00,29.0,3.0,30.13,NNW,338,2.0,5.0,32,0.00,,,0.00,,2013-01-16 12:42:00,
2013-01-16 05:53:00,29.0,3.0,30.13,ENE,68,1.0,4.0,32,0.00,,,0.00,,2013-01-16 12:53:00,
2013-01-16 06:02:00,30.0,4.0,30.16,North,0,1.0,4.0,32,0.00,,,0.00,,2013-01-16 13:02:00,
2013-01-16 06:12:00,30.0,4.0,30.16,North,0,1.0,4.0,32,0.00,,,0.00,,2013-01-16 13:12:00,
2013-01-16 06:22:00,30.0,4.0,30.13,WSW,248,4.0,4.0,32,0.00,,,0.00,,2013-01-16 13:22:00,
2013-01-16 06:32:00,30.0,4.0,30.13,West,270,6.0,6.0,33,0.00,,,0.00,,2013-01-16 13:32:00,
2013-01-16 06:42:00,30.0,4.0,30.13,West,270,6.0,6.0,33,0.00,,,0.00,,2013-01-16 13:42:00,
2013-01-16 06:52:00,31.0,5.0,30.13,West,270,6.0,9.0,32,0.00,,,0.00,,2013-01-16 13:52:00,
2013-01-16 07:02:00,30.0,4.0,30.13,WNW,293,3.0,6.0,32,0.00,,,0.00,,2013-01-16 14:02:00,
2013-01-16 07:11:00,30.0,4.0,30.13,WNW,293,3.0,6.0,32,0.00,,,0.00,,2013-01-16 14:11:00,
2013-01-16 07:22:00,30.0,4.0,30.10,ENE,68,2.0,3.0,32,0.00,,,0.00,,2013-01-16 14:22:00,
2013-01-16 07:32:00,29.0,3.0,30.13,West,270,3.0,4.0,32,0.00,,,0.00,,2013-01-16 14:32:00,
2013-01-16 07:42:00,29.0,3.0,30.13,West,270,3.0,4.0,32,0.00,,,0.00,,2013-01-16 14:42:00,
2013-01-16 07:53:00,29.0,4.0,30.13,SSE,158,0.0,2.0,33,0.00,,,0.00,,2013-01-16 14:53:00,
2013-01-16 08:02:00,29.0,4.0,30.13,WNW,293,1.0,3.0,33,0.00,,,0.00,,2013-01-16 15:02:00,
2013-01-16 08:11:00,29.0,4.0,30.13,WNW,293,1.0,3.0,33,0.00,,,0.00,,2013-01-16 15:11:00,
2013-01-16 08:22:00,29.0,4.0,30.16,South,180,2.0,3.0,33,0.00,,,0.00,,2013-01-16 15:22:00,
2013-01-16 08:32:00,29.0,4.0,30.16,ESE,113,0.0,2.0,33,0.00,,,0.00,,2013-01-16 15:32:00,
2013-01-16 08:42:00,29.0,4.0,30.16,ESE,113,0.0,2.0,33,0.00,,,0.00,,2013-01-16 15:42:00,
2013-01-16 08:52:00,36.0,10.0,30.16,ENE,68,2.0,3.0,33,0.00,,,0.00,,2013-01-16 15:52:00,
2013-01-16 09:02:00,35.0,8.0,30.13,ENE,68,4.0,6.0,32,0.00,,,0.00,,2013-01-16 16:02:00,
2013-01-16 09:22:00,37.0,10.0,30.13,East,90,3.0,5.0,32,0.00,,,0.00,,2013-01-16 16:22:00,
2013-01-16 09:32:00,39.0,10.0,30.13,East,90,2.0,6.0,30,0.00,,,0.00,,2013-01-16 16:32:00,
2013-01-16 09:52:00,42.0,12.0,30.13,East,90,2.0,4.0,29,0.00,,,0.00,,2013-01-16 16:52:00,
2013-01-16 10:02:00,45.0,14.0,30.13,East,90,4.0,9.0,28,0.00,,,0.00,,2013-01-16 17:02:00,
2013-01-16 10:22:00,46.0,14.0,30.13,East,90,4.0,9.0,27,0.00,,,0.00,,2013-01-16 17:22:00,
2013-01-16 10:32:00,48.0,13.0,30.10,East,90,5.0,6.0,24,0.00,,,0.00,,2013-01-16 17:32:00,
2013-01-16 10:53:00,50.0,15.0,30.06,East,90,5.0,6.0,24,0.00,,,0.00,,2013-01-16 17:53:00,
2013-01-16 11:02:00,52.0,13.0,30.10,East,90,3.0,6.0,21,0.00,,,0.00,,2013-01-16 18:02:00,
2013-01-16 11:22:00,53.0,14.0,30.10,SW,225,7.0,10.0,21,0.00,,,0.00,,2013-01-16 18:22:00,
2013-01-16 11:33:00,51.0,10.0,30.10,West,270,9.0,10.0,19,0.00,,,0.00,,2013-01-16 18:33:00,
2013-01-16 11:53:00,50.0,9.0,30.10,WSW,248,6.0,11.0,19,0.00,,,0.00,,2013-01-16 18:53:00,
2013-01-16 12:02:00,52.0,11.0,30.10,SSW,203,6.0,10.0,19,0.00,,,0.00,,2013-01-16 19:02:00,
2013-01-16 12:22:00,52.0,10.0,30.06,SW,225,6.0,11.0,18,0.00,,,0.00,,2013-01-16 19:22:00,
2013-01-16 12:32:00,54.0,11.0,30.06,West,270,4.0,6.0,18,0.00,,,0.00,,2013-01-16 19:32:00,
2013-01-16 12:52:00,55.0,11.0,30.06,WNW,293,5.0,6.0,17,0.00,,,0.00,,2013-01-16 19:52:00,
2013-01-16 13:02:00,57.0,13.0,30.03,South,180,5.0,6.0,17,0.00,,,0.00,,2013-01-16 20:02:00,
2013-01-16 13:22:00,57.0,13.0,30.06,NNW,338,2.0,4.0,17,0.00,,,0.00,,2013-01-16 20:22:00,
2013-01-16 13:32:00,58.0,13.0,30.06,West,270,4.0,5.0,17,0.00,,,0.00,,2013-01-16 20:32:00,
2013-01-16 13:53:00,59.0,14.0,30.06,WSW,248,4.0,6.0,17,0.00,,,0.00,,2013-01-16 20:53:00,
2013-01-16 14:02:00,60.0,15.0,30.03,NW,315,4.0,6.0,17,0.00,,,0.00,,2013-01-16 21:02:00,
2013-01-16 14:22:00,59.0,14.0,30.03,NW,315,3.0,6.0,17,0.00,,,0.00,,2013-01-16 21:22:00,
2013-01-16 14:32:00,60.0,15.0,30.03,NNW,338,4.0,7.0,17,0.00,,,0.00,,2013-01-16 21:32:00,
2013-01-16 14:52:00,60.0,15.0,30.03,NNW,338,3.0,6.0,17,0.00,,,0.00,,2013-01-16 21:52:00,
2013-01-16 15:02:00,62.0,15.0,30.03,SSE,158,2.0,6.0,16,0.00,,,0.00,,2013-01-16 22:02:00,
2013-01-16 15:22:00,62.0,15.0,30.03,North,0,4.0,6.0,16,0.00,,,0.00,,2013-01-16 22:22:00,
2013-01-16 15:32:00,63.0,16.0,30.03,West,270,3.0,4.0,16,0.00,,,0.00,,2013-01-16 22:32:00,
2013-01-16 15:52:00,62.0,15.0,30.03,West,270,5.0,6.0,16,0.00,,,0.00,,2013-01-16 22:52:00,
2013-01-16 16:02:00,61.0,14.0,30.03,NNE,23,2.0,3.0,16,0.00,,,0.00,,2013-01-16 23:02:00,
2013-01-16 16:12:00,59.0,14.0,30.03,ENE,68,7.0,9.0,17,0.00,,,0.00,,2013-01-16 23:12:00,
2013-01-16 16:22:00,59.0,14.0,30.03,ENE,68,7.0,9.0,17,0.00,,,0.00,,2013-01-16 23:22:00,
2013-01-16 16:32:00,57.0,13.0,30.03,ENE,68,10.0,13.0,17,0.00,,,0.00,,2013-01-16 23:32:00,
2013-01-16 16:42:00,57.0,13.0,30.03,ENE,68,10.0,13.0,17,0.00,,,0.00,,2013-01-16 23:42:00,
2013-01-16 16:53:00,55.0,11.0,30.03,ENE,68,7.0,12.0,17,0.00,,,0.00,,2013-01-16 23:53:00,
2013-01-16 17:02:00,54.0,11.0,30.03,East,90,8.0,11.0,18,0.00,,,0.00,,2013-01-17 00:02:00,
2013-01-16 17:11:00,54.0,11.0,30.03,East,90,8.0,11.0,18,0.00,,,0.00,,2013-01-17 00:11:00,
2013-01-16 17:22:00,52.0,10.0,30.03,ENE,68,9.0,14.0,18,0.00,,,0.00,,2013-01-17 00:22:00,
2013-01-16 17:32:00,51.0,10.0,30.03,ENE,68,7.0,10.0,19,0.00,,,0.00,,2013-01-17 00:32:00,
2013-01-16 17:52:00,50.0,9.0,30.03,ENE,68,7.0,9.0,19,0.00,,,0.00,,2013-01-17 00:52:00,
2013-01-16 18:02:00,49.0,9.0,30.03,NE,45,5.0,9.0,19,0.00,,,0.00,,2013-01-17 01:02:00,
2013-01-16 18:22:00,48.0,8.0,30.06,East,90,3.0,9.0,19,0.00,,,0.00,,2013-01-17 01:22:00,
2013-01-16 18:32:00,47.0,7.0,30.06,NE,45,7.0,9.0,19,0.00,,,0.00,,2013-01-17 01:32:00,
2013-01-16 19:01:00,46.0,7.0,30.06,ENE,68,4.0,8.0,20,0.00,,,0.00,,2013-01-17 02:01:00,
2013-01-16 19:22:00,45.0,6.0,30.06,SW,225,0.0,1.0,20,0.00,,,0.00,,2013-01-17 02:22:00,
2013-01-16 19:32:00,44.0,6.0,30.06,ENE,68,4.0,5.0,20,0.00,,,0.00,,2013-01-17 02:32:00,
2013-01-16 19:42:00,44.0,6.0,30.06,ENE,68,4.0,5.0,20,0.00,,,0.00,,2013-01-17 02:42:00,
2013-01-16 19:52:00,44.0,6.0,30.06,ENE,68,4.0,5.0,20,0.00,,,0.00,,2013-01-17 02:52:00,
2013-01-16 20:02:00,43.0,8.0,30.06,NW,315,2.0,4.0,23,0.00,,,0.00,,2013-01-17 03:02:00,
2013-01-16 20:22:00,42.0,7.0,30.06,NNW,338,2.0,6.0,23,0.00,,,0.00,,2013-01-17 03:22:00,
2013-01-16 20:32:00,42.0,7.0,30.10,NW,315,4.0,9.0,23,0.00,,,0.00,,2013-01-17 03:32:00,
2013-01-16 20:52:00,42.0,7.0,30.10,ESE,113,3.0,4.0,23,0.00,,,0.00,,2013-01-17 03:52:00,
2013-01-16 21:02:00,43.0,8.0,30.10,East,90,9.0,11.0,23,0.00,,,0.00,,2013-01-17 04:02:00,
2013-01-16 21:11:00,43.0,8.0,30.10,East,90,11.0,11.0,23,0.00,,,0.00,,2013-01-17 04:11:00,
2013-01-16 21:22:00,43.0,8.0,30.10,East,90,11.0,11.0,23,0.00,,,0.00,,2013-01-17 04:22:00,
2013-01-16 21:32:00,43.0,8.0,30.13,ENE,68,8.0,10.0,23,0.00,,,0.00,,2013-01-17 04:32:00,
2013-01-16 21:52:00,42.0,7.0,30.10,ESE,113,9.0,11.0,23,0.00,,,0.00,,2013-01-17 04:52:00,
2013-01-16 22:02:00,42.0,7.0,30.13,North,0,7.0,11.0,23,0.00,,,0.00,,2013-01-17 05:02:00,
2013-01-16 22:22:00,42.0,7.0,30.13,East,90,9.0,13.0,23,0.00,,,0.00,,2013-01-17 05:22:00,
2013-01-16 22:32:00,42.0,7.0,30.13,East,90,11.0,16.0,23,0.00,,,0.00,,2013-01-17 05:32:00,
2013-01-16 22:52:00,42.0,7.0,30.13,ESE,113,10.0,15.0,23,0.00,,,0.00,,2013-01-17 05:52:00,
2013-01-16 23:02:00,41.0,6.0,30.13,NE,45,11.0,15.0,23,0.00,,,0.00,,2013-01-17 06:02:00,
2013-01-16 23:11:00,41.0,6.0,30.10,East,90,8.0,17.0,23,0.00,,,0.00,,2013-01-17 06:11:00,
2013-01-16 23:22:00,41.0,6.0,30.10,East,90,8.0,17.0,23,0.00,,,0.00,,2013-01-17 06:22:00,
2013-01-16 23:32:00,41.0,6.0,30.10,ENE,68,9.0,15.0,23,0.00,,,0.00,,2013-01-17 06:32:00,
2013-01-16 23:52:00,40.0,5.0,30.13,East,90,8.0,16.0,23,0.00,,,0.00,,2013-01-17 06:52:00,